ALK120 VRMG-VCBI
Flight info
| Callsign | ALK120 |
|---|---|
| Flight time | N/A |
| Altitude | 39000 |
| Route | DUKET G454 PADLA DCT LALUM |
| Aircraft | A20N/M-SDE2E3FGHIRWXY/LB1 |
Departure
| Time | 2026-05-07 04:31 |
|---|---|
| Airport | Gan International Airport (VRMG) |
Arrival
| Time | N/A |
|---|---|
| Airport | Bandaranaike International Colombo Airport (VCBI) |
| Time | Latitude | Longitude | Altitude | Speed | Heading |
|---|---|---|---|---|---|
| 2026-05-07 04:14 | -0.69127 | 73.15664 | 16 ft | 0 kts | 189° |
| 2026-05-07 04:22 | -0.69123 | 73.15665 | 16 ft | 1 kts | 181° |
| 2026-05-07 04:22 | -0.69109 | 73.15657 | 16 ft | 4 kts | 91° |
| 2026-05-07 04:23 | -0.69109 | 73.15654 | 16 ft | 0 kts | 73° |
| 2026-05-07 04:27 | -0.69104 | 73.15671 | 16 ft | 6 kts | 72° |
| 2026-05-07 04:27 | -0.69098 | 73.15730 | 16 ft | 11 kts | 89° |
| 2026-05-07 04:28 | -0.69111 | 73.15821 | 16 ft | 15 kts | 114° |
| 2026-05-07 04:28 | -0.69167 | 73.15923 | 17 ft | 16 kts | 120° |
| 2026-05-07 04:28 | -0.69222 | 73.16000 | 15 ft | 12 kts | 168° |
| 2026-05-07 04:28 | -0.69317 | 73.16000 | 14 ft | 15 kts | 185° |
| 2026-05-07 04:29 | -0.69393 | 73.16059 | 14 ft | 15 kts | 113° |
| 2026-05-07 04:29 | -0.69412 | 73.16170 | 15 ft | 18 kts | 97° |
| 2026-05-07 04:29 | -0.69435 | 73.16300 | 15 ft | 21 kts | 101° |
| 2026-05-07 04:29 | -0.69460 | 73.16449 | 16 ft | 23 kts | 99° |
| 2026-05-07 04:30 | -0.69491 | 73.16581 | 17 ft | 13 kts | 97° |
| 2026-05-07 04:30 | -0.69543 | 73.16661 | 16 ft | 16 kts | 139° |
| 2026-05-07 04:30 | -0.69534 | 73.16731 | 17 ft | 11 kts | 9° |
| 2026-05-07 04:30 | -0.69489 | 73.16684 | 17 ft | 10 kts | 271° |
| 2026-05-07 04:31 | -0.69475 | 73.16550 | 17 ft | 47 kts | 277° |
| 2026-05-07 04:31 | -0.69390 | 73.15996 | 14 ft | 111 kts | 279° |
| 2026-05-07 04:31 | -0.69247 | 73.15111 | 249 ft | 133 kts | 281° |
| 2026-05-07 04:31 | -0.69082 | 73.14192 | 893 ft | 138 kts | 279° |
| 2026-05-07 04:32 | -0.68933 | 73.13228 | 1713 ft | 142 kts | 278° |
| 2026-05-07 04:32 | -0.68764 | 73.12163 | 2182 ft | 167 kts | 279° |
| 2026-05-07 04:32 | -0.68561 | 73.10939 | 2679 ft | 190 kts | 278° |
| 2026-05-07 04:32 | -0.68184 | 73.09602 | 3245 ft | 212 kts | 300° |
| 2026-05-07 04:33 | -0.67071 | 73.08549 | 3847 ft | 236 kts | 329° |
| 2026-05-07 04:33 | -0.65388 | 73.08148 | 4408 ft | 266 kts | 358° |
| 2026-05-07 04:33 | -0.63556 | 73.08634 | 5206 ft | 282 kts | 26° |
| 2026-05-07 04:33 | -0.62031 | 73.09909 | 6182 ft | 292 kts | 46° |
| 2026-05-07 04:34 | -0.60740 | 73.11502 | 7047 ft | 298 kts | 49° |
| 2026-05-07 04:34 | -0.59423 | 73.13117 | 7906 ft | 302 kts | 46° |
| 2026-05-07 04:34 | -0.58009 | 73.14684 | 8786 ft | 305 kts | 43° |
| 2026-05-07 04:34 | -0.56514 | 73.16207 | 9643 ft | 310 kts | 41° |
| 2026-05-07 04:35 | -0.54953 | 73.17721 | 10378 ft | 318 kts | 40° |
| 2026-05-07 04:35 | -0.53296 | 73.19291 | 10702 ft | 340 kts | 40° |
| 2026-05-07 04:35 | -0.51520 | 73.20967 | 11015 ft | 360 kts | 40° |
| 2026-05-07 04:35 | -0.49688 | 73.22702 | 11708 ft | 365 kts | 41° |
| 2026-05-07 04:36 | -0.47839 | 73.24455 | 12496 ft | 368 kts | 41° |
| 2026-05-07 04:36 | -0.45903 | 73.26127 | 13268 ft | 369 kts | 36° |